sensor_id;sensor_type;location;lat;lon;timestamp;P1;durP1;ratioP1;P2;durP2;ratioP2
59424;SDS011;45231;44.826;20.312;2022-09-27T00:01:43;15.93;;;7.38;;
59424;SDS011;45231;44.826;20.312;2022-09-27T00:04:10;14.93;;;7.55;;
59424;SDS011;45231;44.826;20.312;2022-09-27T00:06:37;14.38;;;7.68;;
59424;SDS011;45231;44.826;20.312;2022-09-27T00:09:03;22.13;;;7.30;;
59424;SDS011;45231;44.826;20.312;2022-09-27T00:11:31;13.57;;;7.28;;
59424;SDS011;45231;44.826;20.312;2022-09-27T00:13:57;21.38;;;8.05;;
59424;SDS011;45231;44.826;20.312;2022-09-27T00:16:25;14.02;;;7.55;;
59424;SDS011;45231;44.826;20.312;2022-09-27T00:18:51;15.35;;;8.10;;
59424;SDS011;45231;44.826;20.312;2022-09-27T00:21:17;13.40;;;7.35;;
59424;SDS011;45231;44.826;20.312;2022-09-27T00:23:43;14.88;;;7.85;;
59424;SDS011;45231;44.826;20.312;2022-09-27T00:26:10;14.32;;;7.55;;
59424;SDS011;45231;44.826;20.312;2022-09-27T00:28:37;23.67;;;7.35;;
59424;SDS011;45231;44.826;20.312;2022-09-27T00:31:03;13.63;;;6.90;;
59424;SDS011;45231;44.826;20.312;2022-09-27T00:33:29;12.88;;;6.70;;
59424;SDS011;45231;44.826;20.312;2022-09-27T00:36:02;18.95;;;8.65;;
59424;SDS011;45231;44.826;20.312;2022-09-27T00:38:28;18.85;;;6.40;;
59424;SDS011;45231;44.826;20.312;2022-09-27T00:40:54;27.77;;;6.97;;
59424;SDS011;45231;44.826;20.312;2022-09-27T00:43:21;13.45;;;6.13;;
59424;SDS011;45231;44.826;20.312;2022-09-27T00:45:58;12.00;;;6.18;;
59424;SDS011;45231;44.826;20.312;2022-09-27T00:48:27;12.15;;;6.07;;
59424;SDS011;45231;44.826;20.312;2022-09-27T00:50:55;12.88;;;6.55;;
59424;SDS011;45231;44.826;20.312;2022-09-27T00:53:44;12.30;;;6.82;;
59424;SDS011;45231;44.826;20.312;2022-09-27T00:56:11;12.23;;;6.75;;
59424;SDS011;45231;44.826;20.312;2022-09-27T00:58:41;14.40;;;5.97;;
59424;SDS011;45231;44.826;20.312;2022-09-27T01:01:09;18.17;;;5.97;;
59424;SDS011;45231;44.826;20.312;2022-09-27T01:06:09;15.18;;;6.10;;
59424;SDS011;45231;44.826;20.312;2022-09-27T01:08:35;13.25;;;6.63;;
59424;SDS011;45231;44.826;20.312;2022-09-27T01:13:34;18.25;;;6.22;;
59424;SDS011;45231;44.826;20.312;2022-09-27T01:16:08;14.95;;;6.88;;
59424;SDS011;45231;44.826;20.312;2022-09-27T01:18:45;14.32;;;6.70;;
59424;SDS011;45231;44.826;20.312;2022-09-27T01:28:58;12.23;;;6.05;;
59424;SDS011;45231;44.826;20.312;2022-09-27T01:34:10;25.25;;;6.93;;
59424;SDS011;45231;44.826;20.312;2022-09-27T01:39:08;27.33;;;7.57;;
59424;SDS011;45231;44.826;20.312;2022-09-27T01:41:38;30.05;;;7.07;;
59424;SDS011;45231;44.826;20.312;2022-09-27T01:46:41;28.08;;;8.25;;
59424;SDS011;45231;44.826;20.312;2022-09-27T01:49:09;29.08;;;7.25;;
59424;SDS011;45231;44.826;20.312;2022-09-27T01:51:41;22.77;;;8.27;;
59424;SDS011;45231;44.826;20.312;2022-09-27T01:54:11;19.02;;;6.97;;
59424;SDS011;45231;44.826;20.312;2022-09-27T01:56:42;20.02;;;7.70;;
59424;SDS011;45231;44.826;20.312;2022-09-27T01:59:14;17.75;;;7.40;;
59424;SDS011;45231;44.826;20.312;2022-09-27T02:01:40;25.77;;;7.57;;
59424;SDS011;45231;44.826;20.312;2022-09-27T02:04:09;14.30;;;6.88;;
59424;SDS011;45231;44.826;20.312;2022-09-27T02:06:38;20.60;;;7.97;;
59424;SDS011;45231;44.826;20.312;2022-09-27T02:09:07;20.80;;;7.75;;
59424;SDS011;45231;44.826;20.312;2022-09-27T02:11:34;19.58;;;7.75;;
59424;SDS011;45231;44.826;20.312;2022-09-27T02:14:05;22.75;;;6.88;;
59424;SDS011;45231;44.826;20.312;2022-09-27T02:24:23;18.58;;;7.35;;
59424;SDS011;45231;44.826;20.312;2022-09-27T02:26:51;17.48;;;7.07;;
59424;SDS011;45231;44.826;20.312;2022-09-27T02:29:23;16.77;;;7.45;;
59424;SDS011;45231;44.826;20.312;2022-09-27T02:31:50;17.10;;;7.55;;
59424;SDS011;45231;44.826;20.312;2022-09-27T02:34:22;20.00;;;7.35;;
59424;SDS011;45231;44.826;20.312;2022-09-27T02:36:50;26.25;;;7.13;;
59424;SDS011;45231;44.826;20.312;2022-09-27T02:39:17;18.42;;;6.90;;
59424;SDS011;45231;44.826;20.312;2022-09-27T02:41:44;25.77;;;7.72;;
59424;SDS011;45231;44.826;20.312;2022-09-27T02:44:10;20.33;;;7.30;;
59424;SDS011;45231;44.826;20.312;2022-09-27T03:07:03;17.08;;;7.63;;
59424;SDS011;45231;44.826;20.312;2022-09-27T03:09:46;17.27;;;7.97;;
59424;SDS011;45231;44.826;20.312;2022-09-27T03:12:13;18.85;;;8.38;;
59424;SDS011;45231;44.826;20.312;2022-09-27T03:14:39;19.60;;;8.38;;
59424;SDS011;45231;44.826;20.312;2022-09-27T03:17:05;17.08;;;7.82;;
59424;SDS011;45231;44.826;20.312;2022-09-27T03:19:32;17.80;;;8.23;;
59424;SDS011;45231;44.826;20.312;2022-09-27T03:21:58;17.25;;;7.97;;
59424;SDS011;45231;44.826;20.312;2022-09-27T03:24:24;14.65;;;7.20;;
59424;SDS011;45231;44.826;20.312;2022-09-27T03:26:50;20.60;;;8.65;;
59424;SDS011;45231;44.826;20.312;2022-09-27T03:29:16;16.63;;;8.38;;
59424;SDS011;45231;44.826;20.312;2022-09-27T03:31:42;18.73;;;8.23;;
59424;SDS011;45231;44.826;20.312;2022-09-27T03:34:08;16.05;;;8.05;;
59424;SDS011;45231;44.826;20.312;2022-09-27T03:36:34;18.95;;;7.63;;
59424;SDS011;45231;44.826;20.312;2022-09-27T03:39:00;16.65;;;8.57;;
59424;SDS011;45231;44.826;20.312;2022-09-27T03:41:26;20.33;;;9.18;;
59424;SDS011;45231;44.826;20.312;2022-09-27T03:43:52;19.98;;;8.80;;
59424;SDS011;45231;44.826;20.312;2022-09-27T03:46:21;27.52;;;9.48;;
59424;SDS011;45231;44.826;20.312;2022-09-27T03:48:47;25.02;;;8.75;;
59424;SDS011;45231;44.826;20.312;2022-09-27T03:51:13;22.98;;;9.35;;
59424;SDS011;45231;44.826;20.312;2022-09-27T03:53:40;18.92;;;8.55;;
59424;SDS011;45231;44.826;20.312;2022-09-27T03:56:06;24.45;;;8.23;;
59424;SDS011;45231;44.826;20.312;2022-09-27T03:58:33;23.65;;;9.68;;
59424;SDS011;45231;44.826;20.312;2022-09-27T04:00:59;26.27;;;8.05;;
59424;SDS011;45231;44.826;20.312;2022-09-27T04:03:25;22.83;;;9.02;;
59424;SDS011;45231;44.826;20.312;2022-09-27T04:05:54;23.85;;;8.00;;
59424;SDS011;45231;44.826;20.312;2022-09-27T04:08:20;42.25;;;8.70;;
59424;SDS011;45231;44.826;20.312;2022-09-27T04:10:47;29.48;;;8.80;;
59424;SDS011;45231;44.826;20.312;2022-09-27T04:13:13;43.20;;;8.68;;
59424;SDS011;45231;44.826;20.312;2022-09-27T04:15:39;23.30;;;8.10;;
59424;SDS011;45231;44.826;20.312;2022-09-27T04:18:05;27.88;;;8.35;;
59424;SDS011;45231;44.826;20.312;2022-09-27T04:20:32;56.80;;;8.68;;
59424;SDS011;45231;44.826;20.312;2022-09-27T04:22:58;31.67;;;8.57;;
59424;SDS011;45231;44.826;20.312;2022-09-27T04:25:24;24.98;;;7.70;;
59424;SDS011;45231;44.826;20.312;2022-09-27T04:27:50;31.08;;;8.75;;
59424;SDS011;45231;44.826;20.312;2022-09-27T04:30:18;37.28;;;7.75;;
59424;SDS011;45231;44.826;20.312;2022-09-27T04:32:45;24.38;;;6.88;;
59424;SDS011;45231;44.826;20.312;2022-09-27T04:35:11;44.55;;;8.15;;
59424;SDS011;45231;44.826;20.312;2022-09-27T04:37:56;27.60;;;7.40;;
59424;SDS011;45231;44.826;20.312;2022-09-27T04:40:22;32.83;;;7.57;;
59424;SDS011;45231;44.826;20.312;2022-09-27T04:42:51;25.13;;;7.90;;
59424;SDS011;45231;44.826;20.312;2022-09-27T04:45:18;33.92;;;7.25;;
59424;SDS011;45231;44.826;20.312;2022-09-27T04:47:44;28.85;;;7.63;;
59424;SDS011;45231;44.826;20.312;2022-09-27T04:50:11;42.97;;;9.38;;
59424;SDS011;45231;44.826;20.312;2022-09-27T04:52:37;39.25;;;8.35;;
59424;SDS011;45231;44.826;20.312;2022-09-27T04:55:04;33.28;;;9.02;;
59424;SDS011;45231;44.826;20.312;2022-09-27T04:57:30;31.92;;;9.23;;
59424;SDS011;45231;44.826;20.312;2022-09-27T04:59:56;31.65;;;8.50;;
59424;SDS011;45231;44.826;20.312;2022-09-27T05:02:24;30.75;;;8.73;;
59424;SDS011;45231;44.826;20.312;2022-09-27T05:04:51;29.85;;;9.38;;
59424;SDS011;45231;44.826;20.312;2022-09-27T05:07:17;27.77;;;8.65;;
59424;SDS011;45231;44.826;20.312;2022-09-27T05:09:43;28.95;;;8.13;;
59424;SDS011;45231;44.826;20.312;2022-09-27T05:12:10;26.98;;;8.73;;
59424;SDS011;45231;44.826;20.312;2022-09-27T05:14:38;30.85;;;8.00;;
59424;SDS011;45231;44.826;20.312;2022-09-27T05:17:04;26.33;;;8.85;;
59424;SDS011;45231;44.826;20.312;2022-09-27T05:19:32;31.30;;;9.35;;
59424;SDS011;45231;44.826;20.312;2022-09-27T05:21:58;20.60;;;8.27;;
59424;SDS011;45231;44.826;20.312;2022-09-27T05:24:24;23.35;;;9.07;;
59424;SDS011;45231;44.826;20.312;2022-09-27T05:26:52;21.92;;;8.40;;
59424;SDS011;45231;44.826;20.312;2022-09-27T05:29:18;25.45;;;8.57;;
59424;SDS011;45231;44.826;20.312;2022-09-27T05:31:44;22.63;;;8.45;;
59424;SDS011;45231;44.826;20.312;2022-09-27T05:34:11;22.20;;;8.27;;
59424;SDS011;45231;44.826;20.312;2022-09-27T05:36:37;21.92;;;7.75;;
59424;SDS011;45231;44.826;20.312;2022-09-27T05:39:04;20.55;;;9.43;;
59424;SDS011;45231;44.826;20.312;2022-09-27T05:41:31;17.83;;;8.30;;
59424;SDS011;45231;44.826;20.312;2022-09-27T05:43:57;21.38;;;7.72;;
59424;SDS011;45231;44.826;20.312;2022-09-27T05:46:23;20.85;;;7.90;;
59424;SDS011;45231;44.826;20.312;2022-09-27T05:48:49;17.80;;;8.13;;
59424;SDS011;45231;44.826;20.312;2022-09-27T05:51:15;19.08;;;7.70;;
59424;SDS011;45231;44.826;20.312;2022-09-27T05:53:43;16.80;;;8.00;;
59424;SDS011;45231;44.826;20.312;2022-09-27T05:56:09;18.30;;;9.10;;
59424;SDS011;45231;44.826;20.312;2022-09-27T05:58:35;17.60;;;7.43;;
59424;SDS011;45231;44.826;20.312;2022-09-27T06:01:01;17.15;;;7.82;;
59424;SDS011;45231;44.826;20.312;2022-09-27T06:03:30;16.98;;;7.80;;
59424;SDS011;45231;44.826;20.312;2022-09-27T06:06:00;16.05;;;7.88;;
59424;SDS011;45231;44.826;20.312;2022-09-27T06:08:26;16.48;;;7.78;;
59424;SDS011;45231;44.826;20.312;2022-09-27T06:10:58;13.50;;;7.72;;
59424;SDS011;45231;44.826;20.312;2022-09-27T06:13:25;11.68;;;6.13;;
59424;SDS011;45231;44.826;20.312;2022-09-27T06:15:51;10.40;;;6.00;;
59424;SDS011;45231;44.826;20.312;2022-09-27T06:18:17;10.15;;;6.03;;
59424;SDS011;45231;44.826;20.312;2022-09-27T06:20:43;9.40;;;5.65;;
59424;SDS011;45231;44.826;20.312;2022-09-27T06:23:11;10.25;;;5.72;;
59424;SDS011;45231;44.826;20.312;2022-09-27T06:25:38;10.60;;;6.07;;
59424;SDS011;45231;44.826;20.312;2022-09-27T06:30:30;10.65;;;5.85;;
59424;SDS011;45231;44.826;20.312;2022-09-27T06:32:57;10.65;;;6.30;;
59424;SDS011;45231;44.826;20.312;2022-09-27T06:35:23;9.60;;;5.32;;
59424;SDS011;45231;44.826;20.312;2022-09-27T06:37:50;9.50;;;5.25;;
59424;SDS011;45231;44.826;20.312;2022-09-27T06:40:16;10.07;;;5.05;;
59424;SDS011;45231;44.826;20.312;2022-09-27T06:42:42;11.00;;;5.07;;
59424;SDS011;45231;44.826;20.312;2022-09-27T06:45:09;9.40;;;5.05;;
59424;SDS011;45231;44.826;20.312;2022-09-27T06:47:35;10.88;;;5.25;;
59424;SDS011;45231;44.826;20.312;2022-09-27T06:50:02;10.10;;;5.22;;
59424;SDS011;45231;44.826;20.312;2022-09-27T06:52:33;11.27;;;5.22;;
59424;SDS011;45231;44.826;20.312;2022-09-27T06:55:01;9.63;;;5.18;;
59424;SDS011;45231;44.826;20.312;2022-09-27T06:57:27;9.50;;;5.25;;
59424;SDS011;45231;44.826;20.312;2022-09-27T07:00:12;9.60;;;4.78;;
59424;SDS011;45231;44.826;20.312;2022-09-27T07:02:47;8.07;;;4.50;;
59424;SDS011;45231;44.826;20.312;2022-09-27T07:05:14;8.95;;;4.70;;
59424;SDS011;45231;44.826;20.312;2022-09-27T07:07:40;9.65;;;4.97;;
59424;SDS011;45231;44.826;20.312;2022-09-27T07:10:08;8.13;;;4.30;;
59424;SDS011;45231;44.826;20.312;2022-09-27T07:12:35;7.88;;;3.92;;
59424;SDS011;45231;44.826;20.312;2022-09-27T07:15:02;8.07;;;3.97;;
59424;SDS011;45231;44.826;20.312;2022-09-27T07:19:54;6.50;;;3.22;;
59424;SDS011;45231;44.826;20.312;2022-09-27T07:24:46;8.30;;;3.65;;
59424;SDS011;45231;44.826;20.312;2022-09-27T07:27:12;6.30;;;3.13;;
59424;SDS011;45231;44.826;20.312;2022-09-27T07:29:39;5.68;;;3.25;;
59424;SDS011;45231;44.826;20.312;2022-09-27T07:32:06;5.20;;;2.60;;
59424;SDS011;45231;44.826;20.312;2022-09-27T07:34:32;5.50;;;2.63;;
59424;SDS011;45231;44.826;20.312;2022-09-27T07:36:59;4.72;;;2.10;;
59424;SDS011;45231;44.826;20.312;2022-09-27T07:39:25;4.43;;;2.00;;
59424;SDS011;45231;44.826;20.312;2022-09-27T07:41:51;4.53;;;2.28;;
59424;SDS011;45231;44.826;20.312;2022-09-27T07:44:18;5.00;;;2.35;;
59424;SDS011;45231;44.826;20.312;2022-09-27T07:49:09;4.20;;;1.98;;
59424;SDS011;45231;44.826;20.312;2022-09-27T07:54:02;4.60;;;1.95;;
59424;SDS011;45231;44.826;20.312;2022-09-27T07:56:28;3.20;;;1.52;;
59424;SDS011;45231;44.826;20.312;2022-09-27T07:58:54;3.92;;;1.50;;
59424;SDS011;45231;44.826;20.312;2022-09-27T08:01:20;3.83;;;1.63;;
59424;SDS011;45231;44.826;20.312;2022-09-27T08:03:46;3.58;;;1.60;;
59424;SDS011;45231;44.826;20.312;2022-09-27T08:06:12;4.13;;;1.50;;
59424;SDS011;45231;44.826;20.312;2022-09-27T08:08:38;4.50;;;1.48;;
59424;SDS011;45231;44.826;20.312;2022-09-27T08:11:12;2.67;;;1.35;;
59424;SDS011;45231;44.826;20.312;2022-09-27T08:13:42;2.90;;;1.38;;
59424;SDS011;45231;44.826;20.312;2022-09-27T08:16:08;3.15;;;1.33;;
59424;SDS011;45231;44.826;20.312;2022-09-27T08:18:38;2.80;;;1.38;;
59424;SDS011;45231;44.826;20.312;2022-09-27T08:21:04;3.47;;;1.60;;
59424;SDS011;45231;44.826;20.312;2022-09-27T08:23:30;3.50;;;1.80;;
59424;SDS011;45231;44.826;20.312;2022-09-27T08:25:56;2.45;;;1.40;;
59424;SDS011;45231;44.826;20.312;2022-09-27T08:28:24;3.65;;;1.48;;
59424;SDS011;45231;44.826;20.312;2022-09-27T08:30:51;2.40;;;1.15;;
59424;SDS011;45231;44.826;20.312;2022-09-27T08:33:17;2.97;;;1.40;;
59424;SDS011;45231;44.826;20.312;2022-09-27T08:35:43;3.13;;;1.60;;
59424;SDS011;45231;44.826;20.312;2022-09-27T08:38:09;3.75;;;1.60;;
59424;SDS011;45231;44.826;20.312;2022-09-27T08:45:38;3.80;;;1.60;;
59424;SDS011;45231;44.826;20.312;2022-09-27T08:48:07;4.18;;;2.30;;
59424;SDS011;45231;44.826;20.312;2022-09-27T08:50:35;3.40;;;1.58;;
59424;SDS011;45231;44.826;20.312;2022-09-27T08:53:10;4.60;;;1.98;;
59424;SDS011;45231;44.826;20.312;2022-09-27T08:58:18;5.07;;;2.08;;
59424;SDS011;45231;44.826;20.312;2022-09-27T09:00:45;3.88;;;1.80;;
59424;SDS011;45231;44.826;20.312;2022-09-27T09:03:16;5.60;;;2.17;;
59424;SDS011;45231;44.826;20.312;2022-09-27T09:05:43;3.67;;;2.10;;
59424;SDS011;45231;44.826;20.312;2022-09-27T09:08:22;3.58;;;1.77;;
59424;SDS011;45231;44.826;20.312;2022-09-27T09:26:31;7.00;;;2.30;;
59424;SDS011;45231;44.826;20.312;2022-09-27T09:34:11;3.80;;;1.85;;
59424;SDS011;45231;44.826;20.312;2022-09-27T09:36:44;4.55;;;2.22;;
59424;SDS011;45231;44.826;20.312;2022-09-27T09:39:15;4.53;;;1.88;;
59424;SDS011;45231;44.826;20.312;2022-09-27T09:44:28;6.43;;;2.10;;
59424;SDS011;45231;44.826;20.312;2022-09-27T09:46:57;5.13;;;2.20;;
59424;SDS011;45231;44.826;20.312;2022-09-27T09:52:01;5.40;;;2.50;;
59424;SDS011;45231;44.826;20.312;2022-09-27T09:54:30;5.97;;;2.60;;
59424;SDS011;45231;44.826;20.312;2022-09-27T09:57:02;5.88;;;2.97;;
59424;SDS011;45231;44.826;20.312;2022-09-27T09:59:37;4.72;;;2.40;;
59424;SDS011;45231;44.826;20.312;2022-09-27T10:02:39;7.22;;;3.00;;
59424;SDS011;45231;44.826;20.312;2022-09-27T10:04:57;5.30;;;2.50;;
59424;SDS011;45231;44.826;20.312;2022-09-27T10:07:23;5.20;;;2.25;;
59424;SDS011;45231;44.826;20.312;2022-09-27T10:09:50;6.53;;;2.78;;
59424;SDS011;45231;44.826;20.312;2022-09-27T10:12:17;5.78;;;2.13;;
59424;SDS011;45231;44.826;20.312;2022-09-27T10:14:44;4.97;;;2.65;;
59424;SDS011;45231;44.826;20.312;2022-09-27T10:17:11;7.03;;;3.05;;
59424;SDS011;45231;44.826;20.312;2022-09-27T10:19:40;6.40;;;2.40;;
59424;SDS011;45231;44.826;20.312;2022-09-27T10:22:15;5.22;;;2.50;;
59424;SDS011;45231;44.826;20.312;2022-09-27T10:27:09;5.68;;;1.85;;
59424;SDS011;45231;44.826;20.312;2022-09-27T10:29:35;4.28;;;1.92;;
59424;SDS011;45231;44.826;20.312;2022-09-27T10:32:03;2.95;;;1.60;;
59424;SDS011;45231;44.826;20.312;2022-09-27T10:34:39;4.97;;;1.80;;
59424;SDS011;45231;44.826;20.312;2022-09-27T10:39:35;4.47;;;1.70;;
59424;SDS011;45231;44.826;20.312;2022-09-27T10:42:05;5.95;;;1.90;;
59424;SDS011;45231;44.826;20.312;2022-09-27T10:44:44;4.30;;;1.83;;
59424;SDS011;45231;44.826;20.312;2022-09-27T10:47:10;3.03;;;1.60;;
59424;SDS011;45231;44.826;20.312;2022-09-27T10:49:43;4.40;;;1.85;;
59424;SDS011;45231;44.826;20.312;2022-09-27T10:52:19;4.00;;;1.60;;
59424;SDS011;45231;44.826;20.312;2022-09-27T10:55:00;4.35;;;1.80;;
59424;SDS011;45231;44.826;20.312;2022-09-27T10:57:27;2.63;;;1.40;;
59424;SDS011;45231;44.826;20.312;2022-09-27T10:59:58;4.60;;;1.77;;
59424;SDS011;45231;44.826;20.312;2022-09-27T11:07:37;3.17;;;1.48;;
59424;SDS011;45231;44.826;20.312;2022-09-27T11:10:58;4.00;;;1.88;;
59424;SDS011;45231;44.826;20.312;2022-09-27T11:13:12;2.65;;;1.50;;
59424;SDS011;45231;44.826;20.312;2022-09-27T11:21:02;3.30;;;1.67;;
59424;SDS011;45231;44.826;20.312;2022-09-27T11:32:00;6.53;;;2.20;;
59424;SDS011;45231;44.826;20.312;2022-09-27T11:37:11;5.88;;;2.92;;
59424;SDS011;45231;44.826;20.312;2022-09-27T11:39:43;5.68;;;2.50;;
59424;SDS011;45231;44.826;20.312;2022-09-27T11:53:07;6.40;;;3.30;;
59424;SDS011;45231;44.826;20.312;2022-09-27T11:56:00;5.15;;;2.85;;
59424;SDS011;45231;44.826;20.312;2022-09-27T12:03:39;6.13;;;3.45;;
59424;SDS011;45231;44.826;20.312;2022-09-27T12:06:15;5.30;;;3.28;;
59424;SDS011;45231;44.826;20.312;2022-09-27T12:11:19;6.80;;;3.63;;
59424;SDS011;45231;44.826;20.312;2022-09-27T12:13:51;6.43;;;3.30;;
59424;SDS011;45231;44.826;20.312;2022-09-27T12:16:18;6.15;;;3.47;;
59424;SDS011;45231;44.826;20.312;2022-09-27T12:18:45;7.25;;;5.03;;
59424;SDS011;45231;44.826;20.312;2022-09-27T12:21:13;9.45;;;5.88;;
59424;SDS011;45231;44.826;20.312;2022-09-27T12:23:42;9.00;;;6.65;;
59424;SDS011;45231;44.826;20.312;2022-09-27T12:26:10;10.55;;;7.53;;
59424;SDS011;45231;44.826;20.312;2022-09-27T12:28:51;11.35;;;8.20;;
59424;SDS011;45231;44.826;20.312;2022-09-27T12:34:15;10.70;;;7.68;;
59424;SDS011;45231;44.826;20.312;2022-09-27T12:36:45;10.52;;;6.72;;
59424;SDS011;45231;44.826;20.312;2022-09-27T12:39:16;12.35;;;8.10;;
59424;SDS011;45231;44.826;20.312;2022-09-27T12:41:47;16.63;;;10.30;;
59424;SDS011;45231;44.826;20.312;2022-09-27T12:44:14;17.08;;;10.88;;
59424;SDS011;45231;44.826;20.312;2022-09-27T12:51:46;18.60;;;10.98;;
59424;SDS011;45231;44.826;20.312;2022-09-27T13:12:25;4.90;;;1.40;;
59424;SDS011;45231;44.826;20.312;2022-09-27T13:15:02;7.30;;;2.13;;
59424;SDS011;45231;44.826;20.312;2022-09-27T13:17:52;3.90;;;1.58;;
59424;SDS011;45231;44.826;20.312;2022-09-27T13:30:59;6.80;;;2.83;;
59424;SDS011;45231;44.826;20.312;2022-09-27T13:33:45;8.40;;;3.28;;
59424;SDS011;45231;44.826;20.312;2022-09-27T13:41:26;5.80;;;2.50;;
59424;SDS011;45231;44.826;20.312;2022-09-27T13:46:29;5.95;;;2.85;;
59424;SDS011;45231;44.826;20.312;2022-09-27T13:56:52;6.93;;;2.40;;
59424;SDS011;45231;44.826;20.312;2022-09-27T14:01:51;5.93;;;2.03;;
59424;SDS011;45231;44.826;20.312;2022-09-27T14:04:31;5.32;;;2.15;;
59424;SDS011;45231;44.826;20.312;2022-09-27T14:07:00;4.18;;;1.83;;
59424;SDS011;45231;44.826;20.312;2022-09-27T14:12:00;6.00;;;2.55;;
59424;SDS011;45231;44.826;20.312;2022-09-27T14:14:28;6.40;;;2.53;;
59424;SDS011;45231;44.826;20.312;2022-09-27T14:16:56;7.07;;;2.97;;
59424;SDS011;45231;44.826;20.312;2022-09-27T14:19:23;6.03;;;2.40;;
59424;SDS011;45231;44.826;20.312;2022-09-27T14:21:50;5.13;;;2.28;;
59424;SDS011;45231;44.826;20.312;2022-09-27T14:26:46;5.43;;;2.17;;
59424;SDS011;45231;44.826;20.312;2022-09-27T14:29:16;5.18;;;2.20;;
59424;SDS011;45231;44.826;20.312;2022-09-27T14:31:42;5.00;;;2.30;;
59424;SDS011;45231;44.826;20.312;2022-09-27T14:34:09;5.65;;;2.20;;
59424;SDS011;45231;44.826;20.312;2022-09-27T14:36:36;3.95;;;1.90;;
59424;SDS011;45231;44.826;20.312;2022-09-27T14:39:22;5.47;;;2.47;;
59424;SDS011;45231;44.826;20.312;2022-09-27T14:41:48;6.65;;;2.65;;
59424;SDS011;45231;44.826;20.312;2022-09-27T14:44:15;4.47;;;1.95;;
59424;SDS011;45231;44.826;20.312;2022-09-27T14:46:42;5.95;;;2.20;;
59424;SDS011;45231;44.826;20.312;2022-09-27T14:49:31;4.93;;;2.10;;
59424;SDS011;45231;44.826;20.312;2022-09-27T14:51:56;4.90;;;1.90;;
59424;SDS011;45231;44.826;20.312;2022-09-27T14:54:28;5.65;;;2.45;;
59424;SDS011;45231;44.826;20.312;2022-09-27T14:56:55;5.10;;;2.30;;
59424;SDS011;45231;44.826;20.312;2022-09-27T15:01:54;6.38;;;2.22;;
59424;SDS011;45231;44.826;20.312;2022-09-27T15:04:21;6.90;;;2.45;;
59424;SDS011;45231;44.826;20.312;2022-09-27T15:06:48;4.80;;;1.98;;
59424;SDS011;45231;44.826;20.312;2022-09-27T15:09:14;5.88;;;2.22;;
59424;SDS011;45231;44.826;20.312;2022-09-27T15:11:41;5.75;;;2.20;;
59424;SDS011;45231;44.826;20.312;2022-09-27T15:14:18;6.13;;;2.55;;
59424;SDS011;45231;44.826;20.312;2022-09-27T15:16:45;5.28;;;2.28;;
59424;SDS011;45231;44.826;20.312;2022-09-27T15:19:13;6.75;;;2.30;;
59424;SDS011;45231;44.826;20.312;2022-09-27T15:21:41;4.93;;;2.00;;
59424;SDS011;45231;44.826;20.312;2022-09-27T15:24:34;4.85;;;1.90;;
59424;SDS011;45231;44.826;20.312;2022-09-27T15:26:53;4.90;;;2.28;;
59424;SDS011;45231;44.826;20.312;2022-09-27T15:29:21;4.85;;;1.90;;
59424;SDS011;45231;44.826;20.312;2022-09-27T15:31:58;4.78;;;1.92;;
59424;SDS011;45231;44.826;20.312;2022-09-27T15:34:25;6.80;;;2.20;;
59424;SDS011;45231;44.826;20.312;2022-09-27T15:36:52;4.95;;;2.15;;
59424;SDS011;45231;44.826;20.312;2022-09-27T15:39:20;7.80;;;2.22;;
59424;SDS011;45231;44.826;20.312;2022-09-27T15:42:24;5.78;;;2.05;;
59424;SDS011;45231;44.826;20.312;2022-09-27T15:44:44;5.38;;;1.90;;
59424;SDS011;45231;44.826;20.312;2022-09-27T15:49:56;4.70;;;1.85;;
59424;SDS011;45231;44.826;20.312;2022-09-27T15:55:27;4.38;;;1.92;;
59424;SDS011;45231;44.826;20.312;2022-09-27T16:00:23;4.75;;;1.85;;
59424;SDS011;45231;44.826;20.312;2022-09-27T16:02:49;4.78;;;2.10;;
59424;SDS011;45231;44.826;20.312;2022-09-27T16:05:15;6.22;;;1.92;;
59424;SDS011;45231;44.826;20.312;2022-09-27T16:07:41;3.75;;;1.70;;
59424;SDS011;45231;44.826;20.312;2022-09-27T16:10:21;5.25;;;2.20;;
59424;SDS011;45231;44.826;20.312;2022-09-27T16:12:47;7.07;;;2.33;;
59424;SDS011;45231;44.826;20.312;2022-09-27T16:15:15;4.47;;;1.95;;
59424;SDS011;45231;44.826;20.312;2022-09-27T16:17:41;6.03;;;2.25;;
59424;SDS011;45231;44.826;20.312;2022-09-27T16:20:14;7.70;;;3.03;;
59424;SDS011;45231;44.826;20.312;2022-09-27T16:22:41;8.82;;;4.05;;
59424;SDS011;45231;44.826;20.312;2022-09-27T16:25:08;10.15;;;4.00;;
59424;SDS011;45231;44.826;20.312;2022-09-27T16:30:00;6.35;;;2.60;;
59424;SDS011;45231;44.826;20.312;2022-09-27T16:32:27;7.03;;;3.08;;
59424;SDS011;45231;44.826;20.312;2022-09-27T16:34:54;6.20;;;2.67;;
59424;SDS011;45231;44.826;20.312;2022-09-27T16:37:21;6.93;;;2.70;;
59424;SDS011;45231;44.826;20.312;2022-09-27T16:39:47;7.25;;;3.03;;
59424;SDS011;45231;44.826;20.312;2022-09-27T16:42:13;6.53;;;2.55;;
59424;SDS011;45231;44.826;20.312;2022-09-27T16:47:06;6.47;;;2.50;;
59424;SDS011;45231;44.826;20.312;2022-09-27T16:49:32;6.70;;;2.30;;
59424;SDS011;45231;44.826;20.312;2022-09-27T16:52:17;5.60;;;2.40;;
59424;SDS011;45231;44.826;20.312;2022-09-27T16:54:43;5.47;;;2.17;;
59424;SDS011;45231;44.826;20.312;2022-09-27T16:57:09;5.63;;;2.30;;
59424;SDS011;45231;44.826;20.312;2022-09-27T16:59:35;4.55;;;1.98;;
59424;SDS011;45231;44.826;20.312;2022-09-27T17:02:01;7.78;;;1.85;;
59424;SDS011;45231;44.826;20.312;2022-09-27T17:04:29;6.60;;;2.35;;
59424;SDS011;45231;44.826;20.312;2022-09-27T17:09:22;4.05;;;1.67;;
59424;SDS011;45231;44.826;20.312;2022-09-27T17:11:48;6.97;;;1.80;;
59424;SDS011;45231;44.826;20.312;2022-09-27T17:14:14;5.03;;;2.15;;
59424;SDS011;45231;44.826;20.312;2022-09-27T17:16:44;4.63;;;1.80;;
59424;SDS011;45231;44.826;20.312;2022-09-27T17:19:10;5.45;;;2.05;;
59424;SDS011;45231;44.826;20.312;2022-09-27T17:21:37;5.68;;;2.00;;
59424;SDS011;45231;44.826;20.312;2022-09-27T17:24:03;5.20;;;2.10;;
59424;SDS011;45231;44.826;20.312;2022-09-27T17:26:29;6.30;;;2.45;;
59424;SDS011;45231;44.826;20.312;2022-09-27T17:31:22;5.18;;;2.00;;
59424;SDS011;45231;44.826;20.312;2022-09-27T17:33:50;5.05;;;2.15;;
59424;SDS011;45231;44.826;20.312;2022-09-27T17:36:18;4.28;;;2.05;;
59424;SDS011;45231;44.826;20.312;2022-09-27T17:38:44;6.13;;;2.28;;
59424;SDS011;45231;44.826;20.312;2022-09-27T17:43:40;7.22;;;2.17;;
59424;SDS011;45231;44.826;20.312;2022-09-27T17:46:12;6.80;;;2.53;;
59424;SDS011;45231;44.826;20.312;2022-09-27T17:48:38;6.43;;;2.50;;
59424;SDS011;45231;44.826;20.312;2022-09-27T17:51:23;7.00;;;2.80;;
59424;SDS011;45231;44.826;20.312;2022-09-27T17:53:50;7.03;;;2.90;;
59424;SDS011;45231;44.826;20.312;2022-09-27T17:56:16;7.82;;;3.22;;
59424;SDS011;45231;44.826;20.312;2022-09-27T17:58:46;7.22;;;3.33;;
59424;SDS011;45231;44.826;20.312;2022-09-27T18:01:13;8.30;;;3.58;;
59424;SDS011;45231;44.826;20.312;2022-09-27T18:03:41;7.28;;;3.42;;
59424;SDS011;45231;44.826;20.312;2022-09-27T18:06:15;9.13;;;4.20;;
59424;SDS011;45231;44.826;20.312;2022-09-27T18:08:47;10.45;;;4.15;;
59424;SDS011;45231;44.826;20.312;2022-09-27T18:11:14;7.18;;;3.80;;
59424;SDS011;45231;44.826;20.312;2022-09-27T18:13:47;10.88;;;4.93;;
59424;SDS011;45231;44.826;20.312;2022-09-27T18:16:21;8.25;;;4.30;;
59424;SDS011;45231;44.826;20.312;2022-09-27T18:18:56;9.43;;;4.53;;
59424;SDS011;45231;44.826;20.312;2022-09-27T18:21:27;8.43;;;3.72;;